sensor_id;sensor_type;location;lat;lon;timestamp;pressure;altitude;pressure_sealevel;temperature;humidity
31092;BME280;67728;53.122;12.776;2023-06-10T00:00:55;100911.06;;;13.49;82.42
31092;BME280;67728;53.122;12.776;2023-06-10T00:02:27;100910.09;;;13.53;82.16
31092;BME280;67728;53.122;12.776;2023-06-10T00:03:59;100906.97;;;13.39;81.49
31092;BME280;67728;53.122;12.776;2023-06-10T00:05:31;100917.50;;;13.35;82.26
31092;BME280;67728;53.122;12.776;2023-06-10T00:07:03;100910.44;;;13.40;82.37
31092;BME280;67728;53.122;12.776;2023-06-10T00:08:38;100914.03;;;13.34;82.42
31092;BME280;67728;53.122;12.776;2023-06-10T00:10:10;100915.84;;;13.31;82.41
31092;BME280;67728;53.122;12.776;2023-06-10T00:11:41;100912.22;;;13.38;82.81
31092;BME280;67728;53.122;12.776;2023-06-10T00:13:13;100916.56;;;13.37;82.44
31092;BME280;67728;53.122;12.776;2023-06-10T00:14:45;100918.38;;;13.34;82.55
31092;BME280;67728;53.122;12.776;2023-06-10T00:16:18;100908.69;;;13.40;81.93
31092;BME280;67728;53.122;12.776;2023-06-10T00:17:49;100914.91;;;13.33;81.90
31092;BME280;67728;53.122;12.776;2023-06-10T00:19:25;100909.91;;;13.26;83.12
31092;BME280;67728;53.122;12.776;2023-06-10T00:21:01;100918.53;;;13.28;82.51
31092;BME280;67728;53.122;12.776;2023-06-10T00:22:36;100916.72;;;13.31;83.67
31092;BME280;67728;53.122;12.776;2023-06-10T00:24:08;100903.47;;;13.40;83.16
31092;BME280;67728;53.122;12.776;2023-06-10T00:25:42;100913.22;;;13.32;83.03
31092;BME280;67728;53.122;12.776;2023-06-10T00:27:13;100909.03;;;13.25;83.32
31092;BME280;67728;53.122;12.776;2023-06-10T00:28:45;100911.50;;;13.31;82.72
31092;BME280;67728;53.122;12.776;2023-06-10T00:30:17;100908.78;;;13.36;82.63
31092;BME280;67728;53.122;12.776;2023-06-10T00:31:49;100904.69;;;13.26;83.58
31092;BME280;67728;53.122;12.776;2023-06-10T00:33:21;100910.03;;;13.19;84.32
31092;BME280;67728;53.122;12.776;2023-06-10T00:34:52;100912.31;;;13.35;82.96
31092;BME280;67728;53.122;12.776;2023-06-10T00:36:24;100909.28;;;13.16;83.72
31092;BME280;67728;53.122;12.776;2023-06-10T00:37:56;100915.41;;;13.13;83.25
31092;BME280;67728;53.122;12.776;2023-06-10T00:39:28;100908.53;;;13.09;83.42
31092;BME280;67728;53.122;12.776;2023-06-10T00:40:58;100911.13;;;13.11;83.67
31092;BME280;67728;53.122;12.776;2023-06-10T00:42:30;100918.00;;;13.13;83.43
31092;BME280;67728;53.122;12.776;2023-06-10T00:44:02;100908.34;;;13.18;83.65
31092;BME280;67728;53.122;12.776;2023-06-10T00:45:34;100908.53;;;13.09;83.75
31092;BME280;67728;53.122;12.776;2023-06-10T00:47:06;100910.31;;;13.07;83.93
31092;BME280;67728;53.122;12.776;2023-06-10T00:48:39;100915.41;;;13.12;84.24
31092;BME280;67728;53.122;12.776;2023-06-10T00:50:10;100913.91;;;13.00;84.37
31092;BME280;67728;53.122;12.776;2023-06-10T00:51:44;100911.19;;;13.08;84.84
31092;BME280;67728;53.122;12.776;2023-06-10T00:53:16;100911.03;;;13.14;83.31
31092;BME280;67728;53.122;12.776;2023-06-10T00:54:48;100914.44;;;13.17;83.64
31092;BME280;67728;53.122;12.776;2023-06-10T00:56:20;100906.69;;;13.14;84.11
31092;BME280;67728;53.122;12.776;2023-06-10T00:57:52;100917.66;;;13.29;83.51
31092;BME280;67728;53.122;12.776;2023-06-10T00:59:24;100915.16;;;13.24;83.68
31092;BME280;67728;53.122;12.776;2023-06-10T01:00:56;100914.28;;;13.24;84.31
31092;BME280;67728;53.122;12.776;2023-06-10T01:02:28;100915.16;;;13.24;82.83
31092;BME280;67728;53.122;12.776;2023-06-10T01:03:58;100911.19;;;13.08;83.62
31092;BME280;67728;53.122;12.776;2023-06-10T01:05:30;100919.09;;;13.02;84.22
31092;BME280;67728;53.122;12.776;2023-06-10T01:07:09;100915.50;;;13.06;84.10
31092;BME280;67728;53.122;12.776;2023-06-10T01:08:49;100918.75;;;13.18;83.88
31092;BME280;67728;53.122;12.776;2023-06-10T01:10:29;100923.97;;;13.18;83.98
31092;BME280;67728;53.122;12.776;2023-06-10T01:12:07;100908.28;;;13.22;83.56
31092;BME280;67728;53.122;12.776;2023-06-10T01:13:41;100910.03;;;13.19;84.45
31092;BME280;67728;53.122;12.776;2023-06-10T01:15:13;100914.53;;;13.13;84.39
31092;BME280;67728;53.122;12.776;2023-06-10T01:16:44;100912.06;;;13.07;84.54
31092;BME280;67728;53.122;12.776;2023-06-10T01:18:16;100898.06;;;13.12;83.83
31092;BME280;67728;53.122;12.776;2023-06-10T01:19:53;100904.06;;;13.16;83.65
31092;BME280;67728;53.122;12.776;2023-06-10T01:21:26;100904.13;;;13.13;84.26
31092;BME280;67728;53.122;12.776;2023-06-10T01:22:59;100912.97;;;13.04;84.94
31092;BME280;67728;53.122;12.776;2023-06-10T01:24:31;100916.22;;;13.14;83.98
31092;BME280;67728;53.122;12.776;2023-06-10T01:26:09;100898.88;;;13.14;84.37
31092;BME280;67728;53.122;12.776;2023-06-10T01:27:42;100906.69;;;13.14;84.15
31092;BME280;67728;53.122;12.776;2023-06-10T01:29:17;100904.94;;;13.15;84.54
31092;BME280;67728;53.122;12.776;2023-06-10T01:30:56;100905.75;;;13.17;83.66
31092;BME280;67728;53.122;12.776;2023-06-10T01:32:34;100908.47;;;13.12;85.02
31092;BME280;67728;53.122;12.776;2023-06-10T01:34:09;100900.53;;;13.17;84.40
31092;BME280;67728;53.122;12.776;2023-06-10T01:35:42;100904.53;;;12.93;85.17
31092;BME280;67728;53.122;12.776;2023-06-10T01:37:18;100912.97;;;13.04;84.82
31092;BME280;67728;53.122;12.776;2023-06-10T01:38:52;100910.41;;;13.01;84.58
31092;BME280;67728;53.122;12.776;2023-06-10T01:40:24;100913.81;;;13.05;85.17
31092;BME280;67728;53.122;12.776;2023-06-10T01:41:57;100911.03;;;13.14;84.45
31092;BME280;67728;53.122;12.776;2023-06-10T01:43:32;100903.31;;;13.11;84.58
31092;BME280;67728;53.122;12.776;2023-06-10T01:45:05;100913.91;;;13.00;84.61
31092;BME280;67728;53.122;12.776;2023-06-10T01:46:36;100908.84;;;12.94;85.24
31092;BME280;67728;53.122;12.776;2023-06-10T01:48:08;100911.59;;;12.88;85.34
31092;BME280;67728;53.122;12.776;2023-06-10T01:49:39;100909.09;;;12.82;85.46
31092;BME280;67728;53.122;12.776;2023-06-10T01:51:10;100908.88;;;12.93;85.40
31092;BME280;67728;53.122;12.776;2023-06-10T01:52:43;100913.00;;;13.03;85.76
31092;BME280;67728;53.122;12.776;2023-06-10T01:54:15;100906.94;;;13.01;85.21
31092;BME280;67728;53.122;12.776;2023-06-10T01:55:47;100908.06;;;12.91;85.62
31092;BME280;67728;53.122;12.776;2023-06-10T01:57:19;100919.34;;;12.90;86.16
31092;BME280;67728;53.122;12.776;2023-06-10T01:58:51;100917.53;;;12.93;86.19
31092;BME280;67728;53.122;12.776;2023-06-10T02:00:25;100919.22;;;12.97;85.86
31092;BME280;67728;53.122;12.776;2023-06-10T02:01:56;100910.78;;;12.85;85.64
31092;BME280;67728;53.122;12.776;2023-06-10T02:03:28;100920.25;;;12.89;85.78
31092;BME280;67728;53.122;12.776;2023-06-10T02:05:00;100915.97;;;12.86;85.39
31092;BME280;67728;53.122;12.776;2023-06-10T02:06:31;100912.22;;;12.98;85.19
31092;BME280;67728;53.122;12.776;2023-06-10T02:08:04;100908.78;;;12.97;85.58
31092;BME280;67728;53.122;12.776;2023-06-10T02:09:36;100920.28;;;12.87;86.52
31092;BME280;67728;53.122;12.776;2023-06-10T02:11:08;100919.41;;;12.87;85.69
31092;BME280;67728;53.122;12.776;2023-06-10T02:12:38;100917.53;;;12.93;85.54
31092;BME280;67728;53.122;12.776;2023-06-10T02:14:10;100913.13;;;12.97;85.79
31092;BME280;67728;53.122;12.776;2023-06-10T02:15:42;100911.28;;;13.02;85.95
31092;BME280;67728;53.122;12.776;2023-06-10T02:17:13;100926.97;;;12.99;85.48
31092;BME280;67728;53.122;12.776;2023-06-10T02:18:45;100921.59;;;13.06;85.36
31092;BME280;67728;53.122;12.776;2023-06-10T02:20:16;100930.63;;;12.90;85.64
31092;BME280;67728;53.122;12.776;2023-06-10T02:21:48;100929.63;;;12.97;85.53
31092;BME280;67728;53.122;12.776;2023-06-10T02:23:20;100930.63;;;12.92;85.46
31092;BME280;67728;53.122;12.776;2023-06-10T02:24:52;100931.44;;;12.94;85.70
31092;BME280;67728;53.122;12.776;2023-06-10T02:26:24;100925.53;;;12.84;85.59
31092;BME280;67728;53.122;12.776;2023-06-10T02:27:56;100925.47;;;12.89;85.38
31092;BME280;67728;53.122;12.776;2023-06-10T02:29:27;100928.06;;;12.89;85.84
31092;BME280;67728;53.122;12.776;2023-06-10T02:30:59;100929.00;;;12.86;86.24
31092;BME280;67728;53.122;12.776;2023-06-10T02:32:31;100928.06;;;12.89;84.96
31092;BME280;67728;53.122;12.776;2023-06-10T02:34:02;100925.53;;;12.86;85.29
31092;BME280;67728;53.122;12.776;2023-06-10T02:35:34;100927.22;;;12.87;86.03
31092;BME280;67728;53.122;12.776;2023-06-10T02:37:05;100920.44;;;12.80;86.29
31092;BME280;67728;53.122;12.776;2023-06-10T02:38:39;100926.69;;;12.71;86.37
31092;BME280;67728;53.122;12.776;2023-06-10T02:40:11;100929.94;;;12.82;86.51
31092;BME280;67728;53.122;12.776;2023-06-10T02:41:43;100928.41;;;12.72;86.68
31092;BME280;67728;53.122;12.776;2023-06-10T02:43:14;100926.63;;;12.74;86.70
31092;BME280;67728;53.122;12.776;2023-06-10T02:44:46;100927.72;;;12.63;86.04
31092;BME280;67728;53.122;12.776;2023-06-10T02:46:18;100936.34;;;12.68;87.19
31092;BME280;67728;53.122;12.776;2023-06-10T02:47:50;100934.66;;;12.65;87.15
31092;BME280;67728;53.122;12.776;2023-06-10T02:49:21;100929.50;;;12.62;87.11
31092;BME280;67728;53.122;12.776;2023-06-10T02:50:52;100932.81;;;12.70;85.78
31092;BME280;67728;53.122;12.776;2023-06-10T02:52:24;100927.53;;;12.73;86.49
31092;BME280;67728;53.122;12.776;2023-06-10T02:53:56;100930.06;;;12.76;86.39
31092;BME280;67728;53.122;12.776;2023-06-10T02:55:28;100931.91;;;12.71;86.57
31092;BME280;67728;53.122;12.776;2023-06-10T02:56:59;100931.97;;;12.68;86.73
31092;BME280;67728;53.122;12.776;2023-06-10T02:58:31;100930.16;;;12.73;85.89
31092;BME280;67728;53.122;12.776;2023-06-10T03:00:03;100932.88;;;12.66;87.30
31092;BME280;67728;53.122;12.776;2023-06-10T03:01:39;100931.03;;;12.72;86.73
31092;BME280;67728;53.122;12.776;2023-06-10T03:03:12;100937.22;;;12.67;87.42
31092;BME280;67728;53.122;12.776;2023-06-10T03:04:43;100936.28;;;12.69;86.87
31092;BME280;67728;53.122;12.776;2023-06-10T03:06:15;100935.31;;;12.75;86.71
31092;BME280;67728;53.122;12.776;2023-06-10T03:07:46;100931.78;;;12.77;86.43
31092;BME280;67728;53.122;12.776;2023-06-10T03:09:19;100936.94;;;12.79;87.08
31092;BME280;67728;53.122;12.776;2023-06-10T03:10:49;100936.00;;;12.83;86.40
31092;BME280;67728;53.122;12.776;2023-06-10T03:12:21;100929.81;;;12.87;85.67
31092;BME280;67728;53.122;12.776;2023-06-10T03:13:53;100929.06;;;12.83;86.95
31092;BME280;67728;53.122;12.776;2023-06-10T03:15:25;100929.00;;;12.85;86.47
31092;BME280;67728;53.122;12.776;2023-06-10T03:16:56;100937.84;;;12.78;86.87
31092;BME280;67728;53.122;12.776;2023-06-10T03:18:28;100930.78;;;12.83;85.89
31092;BME280;67728;53.122;12.776;2023-06-10T03:19:59;100931.56;;;12.88;85.80
31092;BME280;67728;53.122;12.776;2023-06-10T03:21:31;100929.06;;;12.83;85.55
31092;BME280;67728;53.122;12.776;2023-06-10T03:23:04;100925.59;;;12.83;86.22
31092;BME280;67728;53.122;12.776;2023-06-10T03:24:38;100930.16;;;12.72;85.54
31092;BME280;67728;53.122;12.776;2023-06-10T03:26:10;100930.00;;;12.79;86.58
31092;BME280;67728;53.122;12.776;2023-06-10T03:27:44;100928.38;;;12.75;85.73
31092;BME280;67728;53.122;12.776;2023-06-10T03:29:16;100929.34;;;12.70;87.00
31092;BME280;67728;53.122;12.776;2023-06-10T03:30:47;100923.16;;;12.75;86.55
31092;BME280;67728;53.122;12.776;2023-06-10T03:32:20;100922.41;;;12.69;86.92
31092;BME280;67728;53.122;12.776;2023-06-10T03:33:52;100923.22;;;12.71;86.02
31092;BME280;67728;53.122;12.776;2023-06-10T03:35:22;100918.81;;;12.76;86.36
31092;BME280;67728;53.122;12.776;2023-06-10T03:36:54;100930.25;;;12.67;86.88
31092;BME280;67728;53.122;12.776;2023-06-10T03:38:26;100923.03;;;12.80;85.42
31092;BME280;67728;53.122;12.776;2023-06-10T03:39:58;100930.25;;;12.67;87.17
31092;BME280;67728;53.122;12.776;2023-06-10T03:41:30;100921.38;;;12.77;87.07
31092;BME280;67728;53.122;12.776;2023-06-10T03:43:02;100922.28;;;12.75;87.59
31092;BME280;67728;53.122;12.776;2023-06-10T03:44:34;100937.97;;;12.72;87.17
31092;BME280;67728;53.122;12.776;2023-06-10T03:46:05;100929.91;;;12.84;87.35
31092;BME280;67728;53.122;12.776;2023-06-10T03:47:37;100928.38;;;12.75;87.30
31092;BME280;67728;53.122;12.776;2023-06-10T03:49:10;100930.97;;;12.74;87.20
31092;BME280;67728;53.122;12.776;2023-06-10T03:50:42;100929.13;;;12.79;87.18
31092;BME280;67728;53.122;12.776;2023-06-10T03:52:14;100935.31;;;12.75;87.58
31092;BME280;67728;53.122;12.776;2023-06-10T03:53:45;100932.53;;;12.84;86.42
31092;BME280;67728;53.122;12.776;2023-06-10T03:55:19;100934.31;;;12.80;87.05
31092;BME280;67728;53.122;12.776;2023-06-10T03:56:52;100938.50;;;12.87;85.71
31092;BME280;67728;53.122;12.776;2023-06-10T03:58:23;100942.75;;;12.91;86.07
31092;BME280;67728;53.122;12.776;2023-06-10T03:59:55;100945.25;;;12.96;85.91
31092;BME280;67728;53.122;12.776;2023-06-10T04:01:26;100942.84;;;12.87;85.44
31092;BME280;67728;53.122;12.776;2023-06-10T04:02:57;100944.25;;;13.03;85.60
31092;BME280;67728;53.122;12.776;2023-06-10T04:04:29;100940.88;;;12.98;86.70
31092;BME280;67728;53.122;12.776;2023-06-10T04:06:01;100937.50;;;12.93;86.28
31092;BME280;67728;53.122;12.776;2023-06-10T04:07:32;100944.28;;;13.01;86.20
31092;BME280;67728;53.122;12.776;2023-06-10T04:09:04;100942.38;;;13.11;86.04
31092;BME280;67728;53.122;12.776;2023-06-10T04:10:37;100943.13;;;13.14;85.36
31092;BME280;67728;53.122;12.776;2023-06-10T04:12:08;100940.72;;;13.07;85.72
31092;BME280;67728;53.122;12.776;2023-06-10T04:13:40;100942.53;;;13.02;86.28
31092;BME280;67728;53.122;12.776;2023-06-10T04:15:12;100944.28;;;13.01;86.17
31092;BME280;67728;53.122;12.776;2023-06-10T04:16:43;100944.97;;;13.11;85.36
31092;BME280;67728;53.122;12.776;2023-06-10T04:18:16;100944.13;;;13.10;86.04
31092;BME280;67728;53.122;12.776;2023-06-10T04:19:48;100943.81;;;13.23;85.21
31092;BME280;67728;53.122;12.776;2023-06-10T04:21:18;100943.75;;;13.26;86.01
31092;BME280;67728;53.122;12.776;2023-06-10T04:22:50;100950.63;;;13.30;85.60
31092;BME280;67728;53.122;12.776;2023-06-10T04:24:21;100945.50;;;13.27;85.52
31092;BME280;67728;53.122;12.776;2023-06-10T04:25:54;100952.25;;;13.35;85.43
31092;BME280;67728;53.122;12.776;2023-06-10T04:27:25;100938.13;;;13.44;85.21
31092;BME280;67728;53.122;12.776;2023-06-10T04:28:57;100941.63;;;13.43;84.73
31092;BME280;67728;53.122;12.776;2023-06-10T04:30:29;100937.22;;;13.45;85.40
31092;BME280;67728;53.122;12.776;2023-06-10T04:32:01;100943.31;;;13.44;85.83
31092;BME280;67728;53.122;12.776;2023-06-10T04:33:33;100945.72;;;13.53;84.47
31092;BME280;67728;53.122;12.776;2023-06-10T04:35:04;100946.59;;;13.53;85.58
31092;BME280;67728;53.122;12.776;2023-06-10T04:36:36;100943.94;;;13.55;84.81
31092;BME280;67728;53.122;12.776;2023-06-10T04:38:07;100941.13;;;13.64;84.96
31092;BME280;67728;53.122;12.776;2023-06-10T04:39:38;100940.06;;;13.71;84.41
31092;BME280;67728;53.122;12.776;2023-06-10T04:41:10;100941.66;;;13.78;84.17
31092;BME280;67728;53.122;12.776;2023-06-10T04:42:42;100941.44;;;13.86;83.71
31092;BME280;67728;53.122;12.776;2023-06-10T04:44:12;100933.94;;;14.06;83.30
31092;BME280;67728;53.122;12.776;2023-06-10T04:45:45;100935.88;;;13.99;83.73
31092;BME280;67728;53.122;12.776;2023-06-10T04:47:15;100939.88;;;14.12;83.12
31092;BME280;67728;53.122;12.776;2023-06-10T04:48:48;100932.84;;;14.16;83.16
31092;BME280;67728;53.122;12.776;2023-06-10T04:50:18;100942.19;;;14.24;83.03
31092;BME280;67728;53.122;12.776;2023-06-10T04:51:50;100942.81;;;14.34;82.42
31092;BME280;67728;53.122;12.776;2023-06-10T04:53:22;100946.00;;;14.44;82.02
31092;BME280;67728;53.122;12.776;2023-06-10T04:54:52;100941.47;;;14.50;81.90
31092;BME280;67728;53.122;12.776;2023-06-10T04:56:26;100946.66;;;14.52;81.89
31092;BME280;67728;53.122;12.776;2023-06-10T04:57:58;100935.41;;;14.50;81.98
31092;BME280;67728;53.122;12.776;2023-06-10T04:59:30;100945.53;;;14.60;80.62
31092;BME280;67728;53.122;12.776;2023-06-10T05:01:01;100944.34;;;14.72;81.23
31092;BME280;67728;53.122;12.776;2023-06-10T05:02:33;100936.09;;;14.85;79.80
31092;BME280;67728;53.122;12.776;2023-06-10T05:04:05;100941.66;;;14.73;79.87
31092;BME280;67728;53.122;12.776;2023-06-10T05:05:35;100943.47;;;14.71;80.43
31092;BME280;67728;53.122;12.776;2023-06-10T05:07:07;100948.53;;;14.77;80.34
31092;BME280;67728;53.122;12.776;2023-06-10T05:08:39;100946.31;;;14.93;79.53
31092;BME280;67728;53.122;12.776;2023-06-10T05:10:10;100948.94;;;14.93;79.24
31092;BME280;67728;53.122;12.776;2023-06-10T05:11:44;100948.94;;;14.93;78.92
31092;BME280;67728;53.122;12.776;2023-06-10T05:13:16;100952.34;;;14.95;78.94
31092;BME280;67728;53.122;12.776;2023-06-10T05:14:48;100950.44;;;15.02;78.90
31092;BME280;67728;53.122;12.776;2023-06-10T05:16:20;100955.78;;;15.25;78.25
31092;BME280;67728;53.122;12.776;2023-06-10T05:17:51;100956.19;;;15.13;78.29
31092;BME280;67728;53.122;12.776;2023-06-10T05:19:22;100952.47;;;15.20;77.75
31092;BME280;67728;53.122;12.776;2023-06-10T05:20:54;100956.00;;;15.19;78.01
31092;BME280;67728;53.122;12.776;2023-06-10T05:22:25;100960.22;;;15.23;77.06
31092;BME280;67728;53.122;12.776;2023-06-10T05:23:57;100958.56;;;15.20;77.23
31092;BME280;67728;53.122;12.776;2023-06-10T05:25:30;100959.38;;;15.22;77.36
31092;BME280;67728;53.122;12.776;2023-06-10T05:27:04;100958.38;;;15.26;76.82
31092;BME280;67728;53.122;12.776;2023-06-10T05:28:36;100959.88;;;15.33;77.12
31092;BME280;67728;53.122;12.776;2023-06-10T05:30:10;100958.75;;;15.42;76.30
31092;BME280;67728;53.122;12.776;2023-06-10T05:31:41;100960.25;;;15.50;76.27
31092;BME280;67728;53.122;12.776;2023-06-10T05:33:13;100966.81;;;15.64;75.70
31092;BME280;67728;53.122;12.776;2023-06-10T05:34:44;100968.00;;;15.53;76.30
31092;BME280;67728;53.122;12.776;2023-06-10T05:36:16;100971.59;;;15.51;75.76
31092;BME280;67728;53.122;12.776;2023-06-10T05:37:48;100966.47;;;15.46;75.76
31092;BME280;67728;53.122;12.776;2023-06-10T05:39:20;100971.34;;;15.59;75.02
31092;BME280;67728;53.122;12.776;2023-06-10T05:40:51;100967.41;;;15.72;76.16
31092;BME280;67728;53.122;12.776;2023-06-10T05:42:24;100964.72;;;15.75;76.05
31092;BME280;67728;53.122;12.776;2023-06-10T05:43:56;100975.41;;;15.93;74.83
31092;BME280;67728;53.122;12.776;2023-06-10T05:45:28;100966.88;;;15.88;74.81
31092;BME280;67728;53.122;12.776;2023-06-10T05:46:59;100969.91;;;16.01;73.82
31092;BME280;67728;53.122;12.776;2023-06-10T05:48:31;100965.50;;;15.77;74.73
31092;BME280;67728;53.122;12.776;2023-06-10T05:50:03;100971.94;;;15.93;73.85
31092;BME280;67728;53.122;12.776;2023-06-10T05:51:37;100973.66;;;15.94;74.34
31092;BME280;67728;53.122;12.776;2023-06-10T05:53:08;100971.94;;;15.93;74.35
31092;BME280;67728;53.122;12.776;2023-06-10T05:54:45;100970.31;;;16.15;73.44
31092;BME280;67728;53.122;12.776;2023-06-10T05:56:16;100965.25;;;16.10;73.19
31092;BME280;67728;53.122;12.776;2023-06-10T05:57:58;100969.78;;;16.05;73.88
31092;BME280;67728;53.122;12.776;2023-06-10T05:59:30;100960.34;;;16.26;73.54
31092;BME280;67728;53.122;12.776;2023-06-10T06:01:01;100961.88;;;16.32;73.74
31092;BME280;67728;53.122;12.776;2023-06-10T06:02:32;100965.50;;;16.28;73.02
31092;BME280;67728;53.122;12.776;2023-06-10T06:04:03;100971.97;;;16.17;73.12
31092;BME280;67728;53.122;12.776;2023-06-10T06:05:36;100960.25;;;16.28;73.12
31092;BME280;67728;53.122;12.776;2023-06-10T06:07:08;100960.16;;;16.31;72.39
31092;BME280;67728;53.122;12.776;2023-06-10T06:08:40;100959.06;;;16.38;73.28
31092;BME280;67728;53.122;12.776;2023-06-10T06:10:12;100960.63;;;16.42;73.79
31092;BME280;67728;53.122;12.776;2023-06-10T06:11:43;100972.78;;;16.44;72.27
31092;BME280;67728;53.122;12.776;2023-06-10T06:13:17;100967.38;;;16.49;72.12
31092;BME280;67728;53.122;12.776;2023-06-10T06:14:48;100968.91;;;16.56;71.92
31092;BME280;67728;53.122;12.776;2023-06-10T06:16:20;100969.81;;;16.55;72.36
31092;BME280;67728;53.122;12.776;2023-06-10T06:17:52;100971.78;;;16.73;71.61
31092;BME280;67728;53.122;12.776;2023-06-10T06:19:23;100983.63;;;16.83;71.51
31092;BME280;67728;53.122;12.776;2023-06-10T06:20:55;100975.97;;;17.23;69.87
31092;BME280;67728;53.122;12.776;2023-06-10T06:22:27;100985.22;;;17.10;71.07
31092;BME280;67728;53.122;12.776;2023-06-10T06:23:59;100989.66;;;17.08;70.66
31092;BME280;67728;53.122;12.776;2023-06-10T06:25:30;100987.84;;;17.10;70.85
31092;BME280;67728;53.122;12.776;2023-06-10T06:27:02;100987.59;;;17.16;70.30
31092;BME280;67728;53.122;12.776;2023-06-10T06:28:35;100994.66;;;17.38;70.21
31092;BME280;67728;53.122;12.776;2023-06-10T06:30:08;100995.19;;;17.46;69.37
31092;BME280;67728;53.122;12.776;2023-06-10T06:31:39;100998.13;;;17.38;69.53
31092;BME280;67728;53.122;12.776;2023-06-10T06:33:11;100995.59;;;17.13;70.19
31092;BME280;67728;53.122;12.776;2023-06-10T06:34:43;100996.31;;;17.17;69.74
31092;BME280;67728;53.122;12.776;2023-06-10T06:36:14;101008.44;;;17.19;70.01
31092;BME280;67728;53.122;12.776;2023-06-10T06:37:46;101004.28;;;17.37;70.22
31092;BME280;67728;53.122;12.776;2023-06-10T06:39:17;100999.47;;;17.25;69.70
31092;BME280;67728;53.122;12.776;2023-06-10T06:40:49;101000.78;;;17.37;69.19
31092;BME280;67728;53.122;12.776;2023-06-10T06:42:21;100998.66;;;17.24;69.55
31092;BME280;67728;53.122;12.776;2023-06-10T06:43:55;100997.94;;;17.19;69.44
31092;BME280;67728;53.122;12.776;2023-06-10T06:45:27;100994.66;;;17.38;69.52
31092;BME280;67728;53.122;12.776;2023-06-10T06:46:59;101002.59;;;17.58;68.81
31092;BME280;67728;53.122;12.776;2023-06-10T06:48:31;101000.91;;;17.78;68.76
31092;BME280;67728;53.122;12.776;2023-06-10T06:50:03;101012.66;;;17.90;68.28
31092;BME280;67728;53.122;12.776;2023-06-10T06:51:35;100998.13;;;18.23;66.87
31092;BME280;67728;53.122;12.776;2023-06-10T06:53:07;100994.00;;;18.18;67.85
31092;BME280;67728;53.122;12.776;2023-06-10T06:54:39;100999.47;;;18.13;67.18
31092;BME280;67728;53.122;12.776;2023-06-10T06:56:10;100993.50;;;18.30;66.97
31092;BME280;67728;53.122;12.776;2023-06-10T06:57:42;100995.50;;;18.23;66.55
31092;BME280;67728;53.122;12.776;2023-06-10T06:59:15;100999.31;;;18.36;66.88
31092;BME280;67728;53.122;12.776;2023-06-10T07:00:49;101003.03;;;18.52;66.38
31092;BME280;67728;53.122;12.776;2023-06-10T07:02:20;101003.09;;;18.51;66.64
31092;BME280;67728;53.122;12.776;2023-06-10T07:03:52;100990.88;;;18.70;66.31
31092;BME280;67728;53.122;12.776;2023-06-10T07:05:24;100995.03;;;19.13;65.08
31092;BME280;67728;53.122;12.776;2023-06-10T07:06:57;101002.69;;;18.99;65.21
31092;BME280;67728;53.122;12.776;2023-06-10T07:08:29;101004.09;;;18.87;66.17
31092;BME280;67728;53.122;12.776;2023-06-10T07:10:00;101005.78;;;19.46;64.18
31092;BME280;67728;53.122;12.776;2023-06-10T07:11:32;101008.94;;;19.71;62.49
31092;BME280;67728;53.122;12.776;2023-06-10T07:13:03;101007.19;;;19.34;64.28
31092;BME280;67728;53.122;12.776;2023-06-10T07:14:36;101011.09;;;19.63;62.76
31092;BME280;67728;53.122;12.776;2023-06-10T07:16:08;101002.34;;;19.44;63.55
31092;BME280;67728;53.122;12.776;2023-06-10T07:17:40;101001.59;;;19.78;62.69
31092;BME280;67728;53.122;12.776;2023-06-10T07:19:11;101005.25;;;19.00;64.38
31092;BME280;67728;53.122;12.776;2023-06-10T07:20:43;101008.91;;;19.17;63.20
31092;BME280;67728;53.122;12.776;2023-06-10T07:22:14;101007.91;;;19.56;62.21
31092;BME280;67728;53.122;12.776;2023-06-10T07:23:46;101004.94;;;19.81;63.09
31092;BME280;67728;53.122;12.776;2023-06-10T07:25:18;101015.63;;;19.78;62.43
31092;BME280;67728;53.122;12.776;2023-06-10T07:26:48;101015.88;;;19.91;61.97
31092;BME280;67728;53.122;12.776;2023-06-10T07:28:20;101010.72;;;20.23;61.33
31092;BME280;67728;53.122;12.776;2023-06-10T07:29:53;101011.56;;;20.07;62.27
31092;BME280;67728;53.122;12.776;2023-06-10T07:31:24;101013.75;;;19.80;63.14
31092;BME280;67728;53.122;12.776;2023-06-10T07:32:56;101012.94;;;19.97;62.01
31092;BME280;67728;53.122;12.776;2023-06-10T07:34:28;101017.13;;;20.01;62.25
31092;BME280;67728;53.122;12.776;2023-06-10T07:35:59;101013.53;;;20.38;61.13
31092;BME280;67728;53.122;12.776;2023-06-10T07:37:31;101021.41;;;20.72;59.11
31092;BME280;67728;53.122;12.776;2023-06-10T07:39:03;101020.53;;;20.71;59.31
31092;BME280;67728;53.122;12.776;2023-06-10T07:40:33;101021.19;;;21.25;57.85
31092;BME280;67728;53.122;12.776;2023-06-10T07:42:06;101025.78;;;20.88;58.36
31092;BME280;67728;53.122;12.776;2023-06-10T07:43:38;101022.88;;;20.60;59.10
31092;BME280;67728;53.122;12.776;2023-06-10T07:45:11;101019.13;;;21.14;58.81
31092;BME280;67728;53.122;12.776;2023-06-10T07:46:43;101023.94;;;21.06;58.47
31092;BME280;67728;53.122;12.776;2023-06-10T07:48:14;101029.22;;;21.06;58.15
31092;BME280;67728;53.122;12.776;2023-06-10T07:49:46;101020.94;;;21.61;57.51
31092;BME280;67728;53.122;12.776;2023-06-10T07:51:18;101024.03;;;21.05;59.46
31092;BME280;67728;53.122;12.776;2023-06-10T07:52:49;101026.84;;;21.02;58.55
31092;BME280;67728;53.122;12.776;2023-06-10T07:54:21;101029.03;;;21.42;57.43
31092;BME280;67728;53.122;12.776;2023-06-10T07:55:53;101018.44;;;22.04;55.51